Time;durP1;ratioP1;P1;durP2;ratioP2;P2;SDS_P1;SDS_P2;PMS_P1;PMS_P2;Temp;Humidity;BMP_temperature;BMP_pressure;BME280_temperature;BME280_humidity;BME280_pressure;Samples;Min_cycle;Max_cycle;Signal;HPM_P1;HPM_P2
2022/07/06 00:01:25;;;;;;;3.92;0.85;;;;;;;;;;5323595;28;20012;-69
2022/07/06 00:03:56;;;;;;;4.65;0.98;;;;;;;;;;5324656;28;20012;-69
2022/07/06 00:06:27;;;;;;;4.32;0.80;;;;;;;;;;5324361;28;20546;-69
2022/07/06 00:08:59;;;;;;;3.25;0.80;;;;;;;;;;5323981;28;20024;-69
2022/07/06 00:11:30;;;;;;;3.70;1.10;;;;;;;;;;5324266;28;20257;-69
2022/07/06 00:14:01;;;;;;;5.82;1.08;;;;;;;;;;5324437;28;20047;-69
2022/07/06 00:16:32;;;;;;;5.53;0.82;;;;;;;;;;5323713;28;20105;-67
2022/07/06 00:19:03;;;;;;;2.70;0.95;;;;;;;;;;5324286;28;20040;-70
2022/07/06 00:21:34;;;;;;;3.42;1.10;;;;;;;;;;5323897;28;20265;-68
2022/07/06 00:24:06;;;;;;;6.47;1.15;;;;;;;;;;5323696;28;20466;-68
2022/07/06 00:26:37;;;;;;;3.72;1.05;;;;;;;;;;5324212;28;20041;-68
2022/07/06 00:29:08;;;;;;;3.63;1.20;;;;;;;;;;5323593;28;20004;-68
2022/07/06 00:31:39;;;;;;;2.57;1.10;;;;;;;;;;5324245;28;20019;-68
2022/07/06 00:34:10;;;;;;;3.45;1.33;;;;;;;;;;5324126;28;20253;-68
2022/07/06 00:36:42;;;;;;;2.97;1.42;;;;;;;;;;5323228;28;20277;-68
2022/07/06 00:39:13;;;;;;;5.33;1.47;;;;;;;;;;5323858;28;20273;-68
2022/07/06 00:41:44;;;;;;;3.97;1.00;;;;;;;;;;5324028;28;20276;-69
2022/07/06 00:44:15;;;;;;;2.50;0.90;;;;;;;;;;5323199;28;20020;-68
2022/07/06 00:46:46;;;;;;;5.57;1.15;;;;;;;;;;5323932;28;20261;-68
2022/07/06 00:52:07;;;;;;;3.97;1.10;;;;;;;;;;5323471;28;20716;-69
2022/07/06 00:54:39;;;;;;;4.28;1.70;;;;;;;;;;5323932;28;20016;-69
2022/07/06 00:57:10;;;;;;;3.63;1.17;;;;;;;;;;5322958;28;20501;-69
2022/07/06 00:59:42;;;;;;;5.07;1.55;;;;;;;;;;5323838;28;20012;-68
2022/07/06 01:02:13;;;;;;;3.17;1.38;;;;;;;;;;5323635;28;20273;-68
2022/07/06 01:04:44;;;;;;;4.85;1.45;;;;;;;;;;5322905;28;20046;-68
2022/07/06 01:07:15;;;;;;;5.90;1.45;;;;;;;;;;5323866;28;20546;-69
2022/07/06 01:09:48;;;;;;;8.20;1.75;;;;;;;;;;5323694;28;20020;-68
2022/07/06 01:12:19;;;;;;;5.80;1.33;;;;;;;;;;5322365;28;20273;-69
2022/07/06 01:14:50;;;;;;;3.58;1.38;;;;;;;;;;5324187;28;20343;-69
2022/07/06 01:17:21;;;;;;;4.05;1.73;;;;;;;;;;5323371;28;20122;-68
2022/07/06 01:19:53;;;;;;;2.75;1.05;;;;;;;;;;5322942;28;20048;-68
2022/07/06 01:22:24;;;;;;;2.95;1.15;;;;;;;;;;5323221;28;20028;-68
2022/07/06 01:24:55;;;;;;;6.13;1.63;;;;;;;;;;5323096;28;20249;-68
2022/07/06 01:27:26;;;;;;;3.35;1.60;;;;;;;;;;5323296;28;20103;-69
2022/07/06 01:29:57;;;;;;;4.70;1.55;;;;;;;;;;5324004;28;20277;-68
2022/07/06 01:32:28;;;;;;;4.83;1.80;;;;;;;;;;5322378;28;20052;-68
2022/07/06 01:35:00;;;;;;;3.05;1.88;;;;;;;;;;5327237;28;20262;-69
2022/07/06 01:37:31;;;;;;;4.38;1.83;;;;;;;;;;5327388;28;20303;-68
2022/07/06 01:40:03;;;;;;;2.45;1.48;;;;;;;;;;5327056;28;20079;-68
2022/07/06 01:42:34;;;;;;;5.25;2.00;;;;;;;;;;5327698;28;20158;-68
2022/07/06 01:45:06;;;;;;;7.22;2.53;;;;;;;;;;5327509;28;20030;-68
2022/07/06 01:47:37;;;;;;;4.70;2.00;;;;;;;;;;5326631;28;20043;-69
2022/07/06 01:50:08;;;;;;;4.28;1.90;;;;;;;;;;5327280;28;20020;-69
2022/07/06 01:52:39;;;;;;;4.90;2.50;;;;;;;;;;5327409;28;20016;-68
2022/07/06 01:55:11;;;;;;;6.63;2.40;;;;;;;;;;5326246;28;20024;-68
2022/07/06 01:57:42;;;;;;;4.78;2.50;;;;;;;;;;5327170;28;20424;-68
2022/07/06 02:00:13;;;;;;;7.38;2.90;;;;;;;;;;5326115;28;20478;-68
2022/07/06 02:02:44;;;;;;;7.68;2.65;;;;;;;;;;5327264;28;20270;-68
2022/07/06 02:05:15;;;;;;;4.28;2.10;;;;;;;;;;5327190;28;20050;-69
2022/07/06 02:07:47;;;;;;;5.28;2.63;;;;;;;;;;5326266;28;20261;-69
2022/07/06 02:10:18;;;;;;;6.28;2.70;;;;;;;;;;5326953;28;20050;-69
2022/07/06 02:12:49;;;;;;;5.88;2.22;;;;;;;;;;5327061;28;20265;-68
2022/07/06 02:15:20;;;;;;;5.50;2.72;;;;;;;;;;5325924;28;20043;-68
2022/07/06 02:17:51;;;;;;;5.55;2.72;;;;;;;;;;5327072;28;20293;-68
2022/07/06 02:20:22;;;;;;;4.93;2.80;;;;;;;;;;5326219;28;20285;-68
2022/07/06 02:22:54;;;;;;;4.32;3.08;;;;;;;;;;5326202;28;20281;-68
2022/07/06 02:25:25;;;;;;;5.43;2.88;;;;;;;;;;5326171;28;20350;-68
2022/07/06 02:27:56;;;;;;;6.35;2.70;;;;;;;;;;5326938;28;20027;-68
2022/07/06 02:30:27;;;;;;;5.07;2.72;;;;;;;;;;5325297;28;20107;-68
2022/07/06 02:32:58;;;;;;;9.50;2.78;;;;;;;;;;5326858;28;20487;-69
2022/07/06 02:35:29;;;;;;;7.00;2.80;;;;;;;;;;5325285;28;20047;-69
2022/07/06 02:38:01;;;;;;;7.93;3.20;;;;;;;;;;5326244;28;20527;-69
2022/07/06 02:40:32;;;;;;;5.15;3.42;;;;;;;;;;5326268;28;20016;-68
2022/07/06 02:43:03;;;;;;;5.60;3.20;;;;;;;;;;5325491;28;20829;-68
2022/07/06 02:45:34;;;;;;;4.72;3.20;;;;;;;;;;5324949;28;20058;-68
2022/07/06 02:48:06;;;;;;;5.35;3.15;;;;;;;;;;5325864;28;20103;-69
2022/07/06 02:50:37;;;;;;;6.70;3.38;;;;;;;;;;5325497;28;20417;-69
2022/07/06 02:53:08;;;;;;;5.80;3.28;;;;;;;;;;5326197;28;20024;-68
2022/07/06 02:55:39;;;;;;;4.25;2.47;;;;;;;;;;5326011;28;20262;-68
2022/07/06 02:58:10;;;;;;;4.93;3.15;;;;;;;;;;5325060;28;20118;-69
2022/07/06 03:00:41;;;;;;;5.80;3.08;;;;;;;;;;5325835;28;20291;-68
2022/07/06 03:03:13;;;;;;;4.72;2.50;;;;;;;;;;5325991;28;20073;-69
2022/07/06 03:05:46;;;;;;;6.82;3.45;;;;;;;;;;5325026;28;20297;-68
2022/07/06 03:08:17;;;;;;;5.18;3.22;;;;;;;;;;5325797;28;20304;-68
2022/07/06 03:10:48;;;;;;;4.85;2.92;;;;;;;;;;5324892;28;20051;-68
2022/07/06 03:13:20;;;;;;;5.43;3.30;;;;;;;;;;5325266;28;20065;-68
2022/07/06 03:15:51;;;;;;;7.20;3.35;;;;;;;;;;5325923;28;20035;-68
2022/07/06 03:18:22;;;;;;;5.50;2.95;;;;;;;;;;5324212;28;20310;-68
2022/07/06 03:20:53;;;;;;;4.53;2.95;;;;;;;;;;5325895;28;20024;-68
2022/07/06 03:23:24;;;;;;;4.03;3.08;;;;;;;;;;5325113;28;20047;-68
2022/07/06 03:25:55;;;;;;;7.57;3.53;;;;;;;;;;5324643;28;20258;-68
2022/07/06 03:28:27;;;;;;;5.95;3.28;;;;;;;;;;5325145;28;20288;-69
2022/07/06 03:30:58;;;;;;;4.40;3.20;;;;;;;;;;5325561;28;20258;-69
2022/07/06 03:33:29;;;;;;;5.20;2.83;;;;;;;;;;5324073;28;20284;-68
2022/07/06 03:36:00;;;;;;;5.45;3.08;;;;;;;;;;5324975;28;20011;-69
2022/07/06 03:38:31;;;;;;;6.03;2.97;;;;;;;;;;5324578;28;20896;-68
2022/07/06 03:41:03;;;;;;;4.03;2.95;;;;;;;;;;5324912;28;20020;-68
2022/07/06 03:43:34;;;;;;;4.25;2.83;;;;;;;;;;5325098;28;20265;-69
2022/07/06 03:46:05;;;;;;;4.03;3.10;;;;;;;;;;5324469;28;20377;-68
2022/07/06 03:48:36;;;;;;;3.45;2.70;;;;;;;;;;5324775;28;20016;-69
2022/07/06 03:51:07;;;;;;;4.63;2.75;;;;;;;;;;5324703;28;20098;-68
2022/07/06 03:53:39;;;;;;;6.90;2.85;;;;;;;;;;5324214;28;20020;-68
2022/07/06 03:56:28;;;;;;;4.28;2.78;;;;;;;;;;5324370;28;20023;-68
2022/07/06 03:59:00;;;;;;;4.07;3.10;;;;;;;;;;5324603;28;20019;-69
2022/07/06 04:01:32;;;;;;;5.95;3.05;;;;;;;;;;5324092;28;20447;-68
2022/07/06 04:04:03;;;;;;;3.53;2.75;;;;;;;;;;5324532;28;20027;-69
2022/07/06 04:06:34;;;;;;;4.78;2.50;;;;;;;;;;5324655;28;20366;-68
2022/07/06 04:09:05;;;;;;;4.95;3.20;;;;;;;;;;5323865;28;20019;-68
2022/07/06 04:11:36;;;;;;;6.93;3.17;;;;;;;;;;5324378;28;20081;-68
2022/07/06 04:14:07;;;;;;;6.07;2.90;;;;;;;;;;5323780;28;20266;-68
2022/07/06 04:16:39;;;;;;;5.40;2.92;;;;;;;;;;5324418;28;20381;-68
2022/07/06 04:19:10;;;;;;;4.03;2.70;;;;;;;;;;5324245;28;20039;-69
2022/07/06 04:21:41;;;;;;;9.20;3.08;;;;;;;;;;5323519;28;20352;-68
2022/07/06 04:24:12;;;;;;;3.97;2.75;;;;;;;;;;5324133;28;20262;-68
2022/07/06 04:26:43;;;;;;;6.25;2.67;;;;;;;;;;5324439;28;20279;-69
2022/07/06 04:29:14;;;;;;;6.97;2.85;;;;;;;;;;5323377;28;20270;-69
2022/07/06 04:31:45;;;;;;;4.63;2.63;;;;;;;;;;5324020;28;20265;-68
2022/07/06 04:34:17;;;;;;;5.85;2.83;;;;;;;;;;5323874;28;20042;-68
2022/07/06 04:36:48;;;;;;;8.48;3.22;;;;;;;;;;5322972;28;20031;-68
2022/07/06 04:39:19;;;;;;;7.80;2.80;;;;;;;;;;5323883;28;21271;-69
2022/07/06 04:41:50;;;;;;;5.00;2.90;;;;;;;;;;5323841;28;20273;-69
2022/07/06 04:44:21;;;;;;;5.15;3.03;;;;;;;;;;5323380;28;20257;-69
2022/07/06 04:46:52;;;;;;;6.30;2.50;;;;;;;;;;5324167;28;20027;-69
2022/07/06 04:49:23;;;;;;;3.65;2.70;;;;;;;;;;5322605;28;20433;-68
2022/07/06 04:51:55;;;;;;;4.20;2.80;;;;;;;;;;5324259;28;20261;-69
2022/07/06 04:54:26;;;;;;;3.37;2.27;;;;;;;;;;5323442;28;20091;-69
2022/07/06 04:56:57;;;;;;;6.45;2.60;;;;;;;;;;5323161;28;20351;-69
2022/07/06 04:59:28;;;;;;;5.90;2.47;;;;;;;;;;5323261;28;20258;-68
2022/07/06 05:01:59;;;;;;;4.82;2.58;;;;;;;;;;5323497;28;20023;-68
2022/07/06 05:04:30;;;;;;;5.65;2.63;;;;;;;;;;5322357;28;20327;-69
2022/07/06 05:07:02;;;;;;;3.70;2.65;;;;;;;;;;5323157;28;20273;-69
2022/07/06 05:09:33;;;;;;;5.20;2.67;;;;;;;;;;5326426;28;20015;-68
2022/07/06 05:12:04;;;;;;;4.47;2.13;;;;;;;;;;5326619;28;20024;-68
2022/07/06 05:14:36;;;;;;;9.90;2.70;;;;;;;;;;5327452;28;20377;-69
2022/07/06 05:17:07;;;;;;;4.80;2.38;;;;;;;;;;5327028;28;20031;-68
2022/07/06 05:19:38;;;;;;;4.20;1.67;;;;;;;;;;5327179;28;20058;-69
2022/07/06 05:22:09;;;;;;;6.83;2.03;;;;;;;;;;5327396;28;20366;-68
2022/07/06 05:24:40;;;;;;;5.07;1.80;;;;;;;;;;5326328;28;20265;-69
2022/07/06 05:27:12;;;;;;;8.13;2.15;;;;;;;;;;5327327;28;20284;-68
2022/07/06 05:29:43;;;;;;;6.47;2.20;;;;;;;;;;5327253;28;20012;-68
2022/07/06 05:32:14;;;;;;;2.60;1.88;;;;;;;;;;5326415;28;20106;-68
2022/07/06 05:34:45;;;;;;;5.75;2.05;;;;;;;;;;5326897;28;20254;-68
2022/07/06 05:37:16;;;;;;;5.38;1.85;;;;;;;;;;5326817;28;20501;-68
2022/07/06 05:39:49;;;;;;;5.10;1.95;;;;;;;;;;5326181;28;20019;-68
2022/07/06 05:42:20;;;;;;;4.05;1.92;;;;;;;;;;5326652;28;20020;-69
2022/07/06 05:44:54;;;;;;;6.53;2.50;;;;;;;;;;5327231;28;20069;-68
2022/07/06 05:50:15;;;;;;;2.78;1.20;;;;;;;;;;5327136;28;20019;-68
2022/07/06 05:53:06;;;;;;;2.60;1.33;;;;;;;;;;5326039;28;20300;-69
2022/07/06 05:55:37;;;;;;;2.63;1.08;;;;;;;;;;5326105;28;20855;-69
2022/07/06 05:58:09;;;;;;;3.67;1.10;;;;;;;;;;5326599;28;20023;-69
2022/07/06 06:00:40;;;;;;;2.90;1.20;;;;;;;;;;5326051;28;20322;-69
2022/07/06 06:03:11;;;;;;;3.83;0.90;;;;;;;;;;5326715;27;20268;-69
2022/07/06 06:05:42;;;;;;;3.43;0.90;;;;;;;;;;5326609;28;20016;-69
2022/07/06 06:08:13;;;;;;;4.43;0.90;;;;;;;;;;5325670;28;20322;-69
2022/07/06 06:10:45;;;;;;;2.65;1.00;;;;;;;;;;5326669;28;20438;-69
2022/07/06 06:13:16;;;;;;;4.15;0.93;;;;;;;;;;5326266;28;20016;-69
2022/07/06 06:15:47;;;;;;;5.45;0.80;;;;;;;;;;5326088;28;20106;-69
2022/07/06 06:18:19;;;;;;;6.30;0.80;;;;;;;;;;5325455;28;20435;-69
2022/07/06 06:20:50;;;;;;;5.47;0.60;;;;;;;;;;5325486;28;20051;-69
2022/07/06 06:23:21;;;;;;;2.78;0.50;;;;;;;;;;5325241;28;20055;-68
2022/07/06 06:25:52;;;;;;;3.67;0.57;;;;;;;;;;5322493;28;20447;-69
2022/07/06 06:28:23;;;;;;;1.65;0.47;;;;;;;;;;5324941;28;20815;-70
2022/07/06 06:30:55;;;;;;;4.78;0.85;;;;;;;;;;5324862;28;20019;-69
2022/07/06 06:33:26;;;;;;;4.22;0.50;;;;;;;;;;5325133;28;20015;-69
2022/07/06 06:35:57;;;;;;;4.82;0.60;;;;;;;;;;5325267;28;20424;-69
2022/07/06 06:38:29;;;;;;;2.10;0.45;;;;;;;;;;5325619;28;20785;-69
2022/07/06 06:41:01;;;;;;;2.80;0.50;;;;;;;;;;5325802;28;20466;-69
2022/07/06 06:43:32;;;;;;;2.00;0.40;;;;;;;;;;5325129;28;20035;-69
2022/07/06 06:46:04;;;;;;;1.15;0.43;;;;;;;;;;5325199;28;20012;-69
2022/07/06 06:48:35;;;;;;;2.50;0.50;;;;;;;;;;5324971;28;20103;-68
2022/07/06 06:51:06;;;;;;;1.63;0.50;;;;;;;;;;5325510;28;20022;-69
2022/07/06 06:53:37;;;;;;;4.13;0.57;;;;;;;;;;5325548;28;20265;-68
2022/07/06 06:56:08;;;;;;;2.25;0.50;;;;;;;;;;5321166;28;20648;-67
2022/07/06 06:58:40;;;;;;;3.65;0.50;;;;;;;;;;5325256;28;20326;-69
2022/07/06 07:01:11;;;;;;;5.33;0.50;;;;;;;;;;5324743;28;20015;-70
2022/07/06 07:03:42;;;;;;;3.58;0.75;;;;;;;;;;5324627;28;20618;-69
2022/07/06 07:06:13;;;;;;;2.13;0.50;;;;;;;;;;5325169;28;20015;-69
2022/07/06 07:08:44;;;;;;;1.33;0.38;;;;;;;;;;5325221;28;20462;-69
2022/07/06 07:11:16;;;;;;;1.60;0.40;;;;;;;;;;5324617;28;20303;-69
2022/07/06 07:13:47;;;;;;;5.28;0.30;;;;;;;;;;5325022;28;20280;-69
2022/07/06 07:16:18;;;;;;;2.65;0.35;;;;;;;;;;5324639;28;20027;-69
2022/07/06 07:18:50;;;;;;;2.40;0.47;;;;;;;;;;5324278;28;20493;-69
2022/07/06 07:21:21;;;;;;;2.90;0.25;;;;;;;;;;5324730;28;20261;-69
2022/07/06 07:23:52;;;;;;;4.28;0.20;;;;;;;;;;5324305;28;20084;-68
2022/07/06 07:26:23;;;;;;;1.65;0.10;;;;;;;;;;5324815;28;20019;-69
2022/07/06 07:28:54;;;;;;;1.23;0.20;;;;;;;;;;5325548;28;20265;-68
2022/07/06 07:31:25;;;;;;;1.27;0.20;;;;;;;;;;5323507;28;20287;-69
2022/07/06 07:33:58;;;;;;;1.27;0.20;;;;;;;;;;5325446;28;20269;-67
2022/07/06 07:36:29;;;;;;;2.03;0.10;;;;;;;;;;5324891;28;20285;-69
2022/07/06 07:39:01;;;;;;;2.75;0.25;;;;;;;;;;5324184;28;20043;-68
2022/07/06 07:41:32;;;;;;;38.47;1.95;;;;;;;;;;5325171;27;20359;-69
2022/07/06 07:44:04;;;;;;;2.83;0.13;;;;;;;;;;5324904;28;20023;-69
2022/07/06 07:46:35;;;;;;;9.45;0.30;;;;;;;;;;5324330;28;20261;-69
2022/07/06 07:49:07;;;;;;;8.45;0.38;;;;;;;;;;5325047;28;20021;-69
2022/07/06 07:51:38;;;;;;;1.80;0.20;;;;;;;;;;5324992;28;20109;-69
2022/07/06 07:54:09;;;;;;;17.38;0.38;;;;;;;;;;5324177;28;20011;-69
2022/07/06 07:56:41;;;;;;;2.08;0.00;;;;;;;;;;5324656;28;20027;-69
2022/07/06 07:59:12;;;;;;;2.65;0.05;;;;;;;;;;5323618;28;20639;-69
2022/07/06 08:01:43;;;;;;;2.78;0.10;;;;;;;;;;5324537;28;20097;-68
2022/07/06 08:04:14;;;;;;;13.70;0.30;;;;;;;;;;5324687;28;20277;-69
2022/07/06 08:06:46;;;;;;;2.15;0.10;;;;;;;;;;5323768;28;20023;-69
2022/07/06 08:09:17;;;;;;;3.53;0.40;;;;;;;;;;5324195;28;20028;-69
2022/07/06 08:11:49;;;;;;;97.95;6.25;;;;;;;;;;5324518;28;20016;-69
2022/07/06 08:14:20;;;;;;;1.38;0.10;;;;;;;;;;5323114;28;20020;-69
2022/07/06 08:16:51;;;;;;;2.63;0.10;;;;;;;;;;5324441;28;20367;-69
2022/07/06 08:19:22;;;;;;;2.47;0.10;;;;;;;;;;5323525;28;20779;-70
2022/07/06 08:21:53;;;;;;;0.95;0.10;;;;;;;;;;5323658;28;20628;-69
2022/07/06 08:24:24;;;;;;;2.70;0.10;;;;;;;;;;5324015;28;20265;-70
2022/07/06 08:26:58;;;;;;;1.10;0.10;;;;;;;;;;5323815;28;20050;-69
2022/07/06 08:29:29;;;;;;;1.40;0.43;;;;;;;;;;5323751;28;20269;-70
2022/07/06 08:32:00;;;;;;;1.05;0.10;;;;;;;;;;5323835;28;20015;-70
2022/07/06 08:34:32;;;;;;;1.42;0.10;;;;;;;;;;5323476;28;20450;-69
2022/07/06 08:37:03;;;;;;;3.93;0.20;;;;;;;;;;5324044;28;20035;-69
2022/07/06 08:39:34;;;;;;;1.95;0.20;;;;;;;;;;5323933;28;20326;-69
2022/07/06 08:42:07;;;;;;;1.77;0.10;;;;;;;;;;5323155;28;20015;-70
2022/07/06 08:44:39;;;;;;;6.22;0.20;;;;;;;;;;5323072;28;20297;-69
2022/07/06 08:47:10;;;;;;;0.40;0.10;;;;;;;;;;5323704;28;20488;-70
2022/07/06 08:49:42;;;;;;;8.30;0.20;;;;;;;;;;5322995;28;20016;-70
2022/07/06 08:52:15;;;;;;;5.78;0.20;;;;;;;;;;5323847;28;20019;-69
2022/07/06 08:54:46;;;;;;;1.70;0.40;;;;;;;;;;5323524;28;20045;-69
2022/07/06 08:57:17;;;;;;;47.20;1.10;;;;;;;;;;5318786;28;20027;-70
2022/07/06 08:59:48;;;;;;;2.25;0.30;;;;;;;;;;5323856;28;20449;-70
2022/07/06 09:02:23;;;;;;;1.45;0.15;;;;;;;;;;5322418;28;20023;-71
2022/07/06 09:04:56;;;;;;;5.57;0.30;;;;;;;;;;5323214;28;20099;-69
2022/07/06 09:07:28;;;;;;;0.95;0.10;;;;;;;;;;5321986;28;20018;-69
2022/07/06 09:09:59;;;;;;;2.53;0.10;;;;;;;;;;5321969;28;20522;-70
2022/07/06 09:12:30;;;;;;;5.35;0.10;;;;;;;;;;5322822;28;20382;-70
2022/07/06 09:15:02;;;;;;;2.75;0.10;;;;;;;;;;5323157;28;20518;-70
2022/07/06 09:17:37;;;;;;;0.60;0.10;;;;;;;;;;5321845;28;20031;-70
2022/07/06 09:20:12;;;;;;;0.90;0.10;;;;;;;;;;5322309;28;20042;-69
2022/07/06 09:22:43;;;;;;;2.92;0.13;;;;;;;;;;5322545;28;20020;-69
2022/07/06 09:25:15;;;;;;;1.70;0.03;;;;;;;;;;5321426;28;20032;-69
2022/07/06 09:27:49;;;;;;;2.05;0.10;;;;;;;;;;5321828;28;20566;-69
2022/07/06 09:30:21;;;;;;;1.48;0.10;;;;;;;;;;5321600;28;20470;-70
2022/07/06 09:32:53;;;;;;;3.17;0.10;;;;;;;;;;5323281;28;20098;-69
2022/07/06 09:35:35;;;;;;;2.28;0.13;;;;;;;;;;5322476;28;20019;-69
2022/07/06 09:38:11;;;;;;;1.35;0.00;;;;;;;;;;5321801;28;20031;-69
2022/07/06 09:40:43;;;;;;;1.73;0.10;;;;;;;;;;5321561;28;20160;-69
2022/07/06 09:43:15;;;;;;;1.00;0.10;;;;;;;;;;5322535;28;20466;-69
2022/07/06 09:45:54;;;;;;;1.75;0.20;;;;;;;;;;5321339;28;20023;-68
2022/07/06 09:48:26;;;;;;;2.17;0.20;;;;;;;;;;5321831;28;20026;-68
2022/07/06 09:50:58;;;;;;;0.50;0.10;;;;;;;;;;5322647;28;20463;-69
2022/07/06 09:53:30;;;;;;;2.75;0.10;;;;;;;;;;5321782;28;20019;-69
2022/07/06 09:56:02;;;;;;;2.10;0.20;;;;;;;;;;5326729;28;20110;-69
2022/07/06 09:58:37;;;;;;;4.75;0.45;;;;;;;;;;5326068;28;20297;-69
2022/07/06 10:01:09;;;;;;;1.27;0.30;;;;;;;;;;5326817;28;20011;-69
2022/07/06 10:03:40;;;;;;;1.70;0.10;;;;;;;;;;5326707;28;20027;-69
2022/07/06 10:06:11;;;;;;;1.13;0.10;;;;;;;;;;5326031;28;20015;-69
2022/07/06 10:08:43;;;;;;;1.38;0.20;;;;;;;;;;5326549;28;20502;-70
2022/07/06 10:11:15;;;;;;;1.88;0.40;;;;;;;;;;5326501;28;20019;-69
2022/07/06 10:13:48;;;;;;;1.05;0.10;;;;;;;;;;5325863;28;20486;-69
2022/07/06 10:16:20;;;;;;;3.53;0.10;;;;;;;;;;5325976;28;20051;-70
2022/07/06 10:18:54;;;;;;;2.33;0.10;;;;;;;;;;5326646;28;20078;-69
2022/07/06 10:21:25;;;;;;;1.75;0.10;;;;;;;;;;5325391;28;20023;-69
2022/07/06 10:23:59;;;;;;;0.85;0.10;;;;;;;;;;5326650;28;20019;-69
2022/07/06 10:26:33;;;;;;;2.30;0.10;;;;;;;;;;5325401;28;20386;-69
2022/07/06 10:29:04;;;;;;;2.47;0.10;;;;;;;;;;5326472;28;20099;-69
2022/07/06 10:31:38;;;;;;;2.85;0.22;;;;;;;;;;5326286;28;20111;-69
2022/07/06 10:34:11;;;;;;;3.88;0.30;;;;;;;;;;5325365;28;20420;-68
2022/07/06 10:36:43;;;;;;;1.55;0.13;;;;;;;;;;5326088;28;20027;-69
2022/07/06 10:42:05;;;;;;;0.80;0.10;;;;;;;;;;5325571;28;20463;-69
2022/07/06 10:44:44;;;;;;;2.53;0.10;;;;;;;;;;5326061;28;20020;-69
2022/07/06 10:47:15;;;;;;;2.30;0.10;;;;;;;;;;5325646;28;20027;-69
2022/07/06 10:49:49;;;;;;;0.65;0.10;;;;;;;;;;5324882;28;20451;-69
2022/07/06 10:52:20;;;;;;;0.77;0.10;;;;;;;;;;5324636;28;20094;-69
2022/07/06 10:54:56;;;;;;;2.15;0.10;;;;;;;;;;5324716;28;20028;-69
2022/07/06 10:57:27;;;;;;;1.48;0.10;;;;;;;;;;5324819;28;20035;-69
2022/07/06 11:00:00;;;;;;;1.52;0.10;;;;;;;;;;5325398;28;20012;-69
2022/07/06 11:02:37;;;;;;;1.52;0.10;;;;;;;;;;5324530;28;20416;-69
2022/07/06 11:05:10;;;;;;;2.22;0.10;;;;;;;;;;5324599;28;20103;-69
2022/07/06 11:07:50;;;;;;;0.90;0.10;;;;;;;;;;5324697;28;20391;-69
2022/07/06 11:10:22;;;;;;;1.38;0.00;;;;;;;;;;5324502;28;20016;-72
2022/07/06 11:13:00;;;;;;;1.45;0.10;;;;;;;;;;5321830;28;20072;-73
2022/07/06 11:15:47;;;;;;;0.60;0.10;;;;;;;;;;5325532;28;20061;-72
2022/07/06 11:18:19;;;;;;;2.25;0.10;;;;;;;;;;5325115;28;20344;-74
2022/07/06 11:21:09;;;;;;;0.98;0.10;;;;;;;;;;5325374;28;20390;-72
2022/07/06 11:23:40;;;;;;;1.15;0.10;;;;;;;;;;5324333;28;20360;-73
2022/07/06 11:26:12;;;;;;;1.00;0.10;;;;;;;;;;5325301;28;20022;-73
2022/07/06 11:28:47;;;;;;;1.77;0.10;;;;;;;;;;5324983;28;20023;-73
2022/07/06 11:31:18;;;;;;;2.10;0.20;;;;;;;;;;5324094;28;20016;-73
2022/07/06 11:33:50;;;;;;;0.52;0.08;;;;;;;;;;5325091;28;20047;-70
2022/07/06 11:36:22;;;;;;;1.80;0.33;;;;;;;;;;5324594;28;20419;-70
2022/07/06 11:38:53;;;;;;;1.02;0.00;;;;;;;;;;5324318;28;20269;-71
2022/07/06 11:41:24;;;;;;;1.63;0.07;;;;;;;;;;5324722;28;20062;-70
2022/07/06 11:43:56;;;;;;;1.58;0.05;;;;;;;;;;5324216;28;20023;-69
2022/07/06 11:46:28;;;;;;;2.60;0.10;;;;;;;;;;5323140;28;20020;-69
2022/07/06 11:49:03;;;;;;;0.60;0.05;;;;;;;;;;5323715;28;20348;-69
2022/07/06 11:51:35;;;;;;;1.60;0.10;;;;;;;;;;5323362;28;20061;-69
2022/07/06 11:54:09;;;;;;;1.73;0.10;;;;;;;;;;5324092;28;20037;-69
2022/07/06 11:56:46;;;;;;;1.55;0.10;;;;;;;;;;5324281;28;20036;-69
2022/07/06 11:59:27;;;;;;;4.10;0.30;;;;;;;;;;5323697;28;20027;-69
2022/07/06 12:01:58;;;;;;;1.52;0.20;;;;;;;;;;5324654;28;20016;-71
2022/07/06 12:04:31;;;;;;;0.82;0.10;;;;;;;;;;5323946;28;20026;-69
2022/07/06 12:07:07;;;;;;;0.93;0.03;;;;;;;;;;5323493;28;20096;-69
2022/07/06 12:09:39;;;;;;;2.42;0.10;;;;;;;;;;5324245;28;20027;-69
2022/07/06 12:12:11;;;;;;;2.10;0.10;;;;;;;;;;5323410;28;20133;-69
2022/07/06 12:14:42;;;;;;;1.20;0.10;;;;;;;;;;5324113;28;20366;-68
2022/07/06 12:17:14;;;;;;;0.70;0.00;;;;;;;;;;5323650;28;20420;-71
2022/07/06 12:19:52;;;;;;;1.10;0.10;;;;;;;;;;5323362;28;20073;-70
2022/07/06 12:22:26;;;;;;;2.58;0.10;;;;;;;;;;5323844;28;20036;-69
2022/07/06 12:24:57;;;;;;;1.10;0.10;;;;;;;;;;5324236;28;20422;-69
2022/07/06 12:27:33;;;;;;;1.77;0.17;;;;;;;;;;5322807;28;20100;-69
2022/07/06 12:30:08;;;;;;;0.63;0.10;;;;;;;;;;5324079;28;20008;-69
2022/07/06 12:32:40;;;;;;;2.35;0.20;;;;;;;;;;5323939;28;20034;-69
2022/07/06 12:35:11;;;;;;;2.53;0.10;;;;;;;;;;5323324;28;20015;-69
2022/07/06 12:37:56;;;;;;;3.03;0.20;;;;;;;;;;5323651;28;20051;-69
2022/07/06 12:40:28;;;;;;;0.93;0.10;;;;;;;;;;5322735;28;20026;-69
2022/07/06 12:42:59;;;;;;;3.10;0.10;;;;;;;;;;5323847;28;20043;-69
2022/07/06 12:45:31;;;;;;;3.57;0.20;;;;;;;;;;5323712;28;20108;-69
2022/07/06 12:48:05;;;;;;;1.45;0.10;;;;;;;;;;5322873;28;20024;-69
2022/07/06 12:50:37;;;;;;;1.67;0.10;;;;;;;;;;5323594;28;20094;-70
2022/07/06 12:53:23;;;;;;;3.28;0.20;;;;;;;;;;5323788;28;20020;-69
2022/07/06 12:56:07;;;;;;;1.38;0.17;;;;;;;;;;5323275;28;20055;-69
2022/07/06 12:58:39;;;;;;;4.30;0.20;;;;;;;;;;5323432;28;20069;-69
2022/07/06 13:01:14;;;;;;;4.28;0.30;;;;;;;;;;5323510;28;20191;-69
2022/07/06 13:03:45;;;;;;;4.40;0.10;;;;;;;;;;5323373;28;20034;-69
2022/07/06 13:06:26;;;;;;;1.92;0.17;;;;;;;;;;5323434;28;20020;-69
2022/07/06 13:08:57;;;;;;;1.70;0.13;;;;;;;;;;5323020;28;20027;-69
2022/07/06 13:11:28;;;;;;;1.52;0.13;;;;;;;;;;5323012;28;20080;-69
2022/07/06 13:13:59;;;;;;;1.20;0.20;;;;;;;;;;5323599;28;20042;-70
2022/07/06 13:16:34;;;;;;;0.70;0.20;;;;;;;;;;5322530;28;20463;-69
2022/07/06 13:19:05;;;;;;;3.17;0.20;;;;;;;;;;5323174;28;20052;-69
2022/07/06 13:21:36;;;;;;;2.13;0.10;;;;;;;;;;5323342;28;20060;-68
2022/07/06 13:24:07;;;;;;;1.83;0.20;;;;;;;;;;5322753;28;20020;-69
2022/07/06 13:26:39;;;;;;;2.15;0.30;;;;;;;;;;5323237;28;20352;-70
2022/07/06 13:29:11;;;;;;;1.95;0.20;;;;;;;;;;5323833;28;20077;-69
2022/07/06 13:31:42;;;;;;;1.52;0.20;;;;;;;;;;5326704;28;20019;-69
2022/07/06 13:34:13;;;;;;;1.88;0.10;;;;;;;;;;5327351;28;20020;-69
2022/07/06 13:36:44;;;;;;;3.80;0.17;;;;;;;;;;5326739;28;20032;-69
2022/07/06 13:39:16;;;;;;;5.40;0.27;;;;;;;;;;5327205;28;20015;-69
2022/07/06 13:41:47;;;;;;;1.38;0.40;;;;;;;;;;5327277;28;20272;-68
2022/07/06 13:44:18;;;;;;;2.90;0.20;;;;;;;;;;5326051;28;20098;-69
2022/07/06 13:46:50;;;;;;;0.73;0.10;;;;;;;;;;5327435;28;20039;-69
2022/07/06 13:49:21;;;;;;;2.42;0.80;;;;;;;;;;5326683;27;20387;-69
2022/07/06 13:51:54;;;;;;;1.42;0.35;;;;;;;;;;5326491;28;20047;-69
2022/07/06 13:54:25;;;;;;;1.42;0.20;;;;;;;;;;5326579;28;20094;-69
2022/07/06 13:56:56;;;;;;;3.20;0.28;;;;;;;;;;5326853;28;20119;-69
2022/07/06 13:59:27;;;;;;;1.35;0.20;;;;;;;;;;5325944;28;20073;-69
2022/07/06 14:01:59;;;;;;;1.43;0.20;;;;;;;;;;5327303;28;20020;-68
2022/07/06 14:04:30;;;;;;;0.90;0.13;;;;;;;;;;5326136;28;20020;-68
2022/07/06 14:07:01;;;;;;;1.40;0.20;;;;;;;;;;5326454;28;20092;-68
2022/07/06 14:09:33;;;;;;;3.53;0.30;;;;;;;;;;5326481;28;20353;-69
2022/07/06 14:12:04;;;;;;;1.50;0.13;;;;;;;;;;5325741;28;20043;-69
2022/07/06 14:14:35;;;;;;;2.63;0.20;;;;;;;;;;5326318;28;20024;-69
2022/07/06 14:17:06;;;;;;;3.75;0.20;;;;;;;;;;5326323;28;20084;-69
2022/07/06 14:19:37;;;;;;;1.33;0.20;;;;;;;;;;5325411;28;20049;-70
2022/07/06 14:22:09;;;;;;;4.72;0.30;;;;;;;;;;5326146;28;20263;-69
2022/07/06 14:24:40;;;;;;;2.00;0.20;;;;;;;;;;5326063;28;20022;-70
2022/07/06 14:27:11;;;;;;;3.22;0.30;;;;;;;;;;5325495;28;20103;-69
2022/07/06 14:29:43;;;;;;;1.50;0.20;;;;;;;;;;5326453;28;20016;-69
2022/07/06 14:32:14;;;;;;;2.95;0.40;;;;;;;;;;5325955;28;20012;-69
2022/07/06 14:34:45;;;;;;;2.47;0.30;;;;;;;;;;5324163;27;20019;-69
2022/07/06 14:37:16;;;;;;;3.90;0.20;;;;;;;;;;5325934;28;20085;-69
2022/07/06 14:39:48;;;;;;;2.97;0.28;;;;;;;;;;5325241;28;20042;-69
2022/07/06 14:42:19;;;;;;;4.10;0.43;;;;;;;;;;5325652;28;20047;-69
2022/07/06 14:44:51;;;;;;;1.27;0.20;;;;;;;;;;5326002;28;20061;-68
2022/07/06 14:47:22;;;;;;;2.03;0.20;;;;;;;;;;5325058;28;20094;-69
2022/07/06 14:49:54;;;;;;;1.63;0.20;;;;;;;;;;5326176;28;20020;-68
2022/07/06 14:52:25;;;;;;;2.72;0.20;;;;;;;;;;5325415;28;20277;-68
2022/07/06 14:54:59;;;;;;;3.00;0.20;;;;;;;;;;5324535;28;20050;-69
2022/07/06 14:57:30;;;;;;;2.92;0.20;;;;;;;;;;5325328;28;20290;-70
2022/07/06 15:00:02;;;;;;;3.35;0.30;;;;;;;;;;5325501;28;20026;-69
2022/07/06 15:02:33;;;;;;;2.15;0.52;;;;;;;;;;5324936;28;20058;-69
2022/07/06 15:05:05;;;;;;;1.55;0.20;;;;;;;;;;5325592;28;20030;-69
2022/07/06 15:07:36;;;;;;;1.83;0.20;;;;;;;;;;5325379;28;20019;-69
2022/07/06 15:10:08;;;;;;;2.13;0.20;;;;;;;;;;5324500;28;20011;-70
2022/07/06 15:12:39;;;;;;;1.27;0.20;;;;;;;;;;5325519;28;20022;-69
2022/07/06 15:15:11;;;;;;;2.67;0.30;;;;;;;;;;5324556;28;20015;-71
2022/07/06 15:17:42;;;;;;;2.43;0.20;;;;;;;;;;5324975;28;20317;-69
2022/07/06 15:20:13;;;;;;;1.33;0.20;;;;;;;;;;5324545;28;20293;-71